ADDS METAR Data INFO
IDs: Format: Raw Decoded Include TAF

Data at: 1233 UTC 20 Jul 2017

KLAR 201153Z AUTO 18006KT 10SM BKN090 14/11 A3034 RMK AO2 SLP174 70011 T01440111 10161 20139 51004